createdAt,value
2019-01-25T00:00:21.008Z,43.50
2019-01-25T00:01:21.055Z,40.80
2019-01-25T00:02:21.125Z,36.50
2019-01-25T00:03:21.150Z,36.00
2019-01-25T00:04:21.200Z,40.00
2019-01-25T00:05:21.248Z,38.90
2019-01-25T00:06:21.294Z,41.80
2019-01-25T00:07:21.342Z,34.50
2019-01-25T00:08:21.393Z,35.40
2019-01-25T00:09:21.439Z,41.40
2019-01-25T00:10:21.486Z,37.90
2019-01-25T00:11:22.100Z,35.60
2019-01-25T00:12:22.223Z,36.60
2019-01-25T00:13:22.451Z,39.90
2019-01-25T00:14:21.678Z,42.90
2019-01-25T00:15:21.726Z,37.70
2019-01-25T00:16:21.777Z,40.90
2019-01-25T00:17:21.822Z,36.80
2019-01-25T00:18:21.869Z,41.00
2019-01-25T00:19:21.917Z,44.00
2019-01-25T00:20:21.967Z,37.00
2019-01-25T00:21:22.013Z,39.30
2019-01-25T00:22:22.061Z,40.50
2019-01-25T00:23:22.109Z,36.70
2019-01-25T00:24:22.158Z,41.30
2019-01-25T00:25:22.206Z,38.00
2019-01-25T00:26:22.252Z,36.90
2019-01-25T00:27:22.300Z,39.70
2019-01-25T00:28:22.349Z,38.40
2019-01-25T00:29:22.401Z,38.10
2019-01-25T00:30:22.446Z,38.90
2019-01-25T00:31:22.494Z,40.00
2019-01-25T00:32:22.541Z,39.80
2019-01-25T00:33:22.589Z,39.60
2019-01-25T00:34:22.637Z,41.00
2019-01-25T00:35:22.684Z,37.60
2019-01-25T00:36:22.766Z,32.50
2019-01-25T00:37:22.780Z,38.10
2019-01-25T00:38:22.828Z,43.40
2019-01-25T00:39:22.877Z,38.50
2019-01-25T00:40:22.924Z,41.40
2019-01-25T00:41:22.972Z,34.50
2019-01-25T00:42:23.020Z,39.40
2019-01-25T00:43:23.069Z,38.00
2019-01-25T00:44:23.115Z,34.30
2019-01-25T00:45:23.165Z,40.90
2019-01-25T00:46:23.212Z,38.10
2019-01-25T00:47:23.264Z,36.00
2019-01-25T00:48:23.308Z,40.50
2019-01-25T00:49:23.356Z,42.10
2019-01-25T00:50:23.404Z,41.10
2019-01-25T00:51:23.451Z,37.00
2019-01-25T00:52:23.500Z,39.20
2019-01-25T00:53:23.550Z,37.50
2019-01-25T00:54:23.597Z,36.60
2019-01-25T00:55:23.644Z,41.30
2019-01-25T00:56:23.695Z,39.70
2019-01-25T00:57:23.745Z,40.00
2019-01-25T00:58:23.788Z,39.80
2019-01-25T00:59:23.835Z,37.50
2019-01-25T01:00:24.502Z,37.20
2019-01-25T01:01:23.931Z,37.30
2019-01-25T01:02:23.983Z,38.00
2019-01-25T01:03:24.028Z,41.30
2019-01-25T01:04:24.079Z,39.30
2019-01-25T01:05:24.124Z,45.70
2019-01-25T01:06:24.171Z,44.20
2019-01-25T01:07:24.218Z,44.00
2019-01-25T01:08:24.266Z,43.00
2019-01-25T01:09:24.316Z,39.70
2019-01-25T01:10:24.362Z,41.40
2019-01-25T01:11:24.410Z,37.50
2019-01-25T01:12:24.461Z,40.20
2019-01-25T01:13:24.509Z,43.40
2019-01-25T01:14:24.560Z,40.80
2019-01-25T01:15:24.602Z,37.20
2019-01-25T01:16:24.650Z,41.70
2019-01-25T01:17:24.699Z,39.30
2019-01-25T01:18:24.748Z,38.30
2019-01-25T01:19:24.794Z,45.50
2019-01-25T01:20:24.842Z,41.70
2019-01-25T01:21:24.890Z,37.50
2019-01-25T01:22:24.939Z,39.20
2019-01-25T01:23:24.986Z,39.90
2019-01-25T01:24:25.033Z,39.50
2019-01-25T01:25:25.082Z,41.40
2019-01-25T01:26:25.129Z,40.00
2019-01-25T01:27:25.177Z,38.10
2019-01-25T01:28:25.225Z,43.50
2019-01-25T01:29:25.288Z,49.50
2019-01-25T01:30:25.338Z,43.40
2019-01-25T01:31:25.368Z,38.90
2019-01-25T01:32:25.417Z,39.70
2019-01-25T01:33:25.477Z,38.80
2019-01-25T01:34:25.527Z,43.40
2019-01-25T01:35:25.559Z,45.60
2019-01-25T01:36:25.610Z,37.00
2019-01-25T01:37:25.659Z,39.20
2019-01-25T01:38:25.711Z,39.70
2019-01-25T01:39:25.751Z,39.30
2019-01-25T01:40:25.800Z,41.90
2019-01-25T01:41:25.851Z,42.50
2019-01-25T01:42:25.896Z,41.50
2019-01-25T01:43:25.943Z,43.60
2019-01-25T01:44:25.991Z,38.90
2019-01-25T01:45:26.040Z,39.50
2019-01-25T01:46:26.085Z,41.10
2019-01-25T01:47:26.134Z,36.00
2019-01-25T01:48:26.181Z,38.20
2019-01-25T01:49:26.231Z,47.10
2019-01-25T01:50:26.277Z,39.70
2019-01-25T01:51:26.326Z,37.20
2019-01-25T01:52:26.374Z,40.30
2019-01-25T01:53:26.422Z,40.40
2019-01-25T01:54:26.469Z,41.00
2019-01-25T01:55:26.519Z,36.60
2019-01-25T01:56:26.566Z,43.30
2019-01-25T01:57:26.613Z,38.80
2019-01-25T01:58:26.661Z,42.00
2019-01-25T01:59:26.709Z,44.20
2019-01-25T02:00:26.756Z,41.10
2019-01-25T02:01:26.820Z,39.30
2019-01-25T02:02:26.851Z,41.30
2019-01-25T02:03:26.899Z,43.40
2019-01-25T02:04:26.949Z,36.30
2019-01-25T02:05:27.008Z,42.10
2019-01-25T02:06:27.044Z,43.50
2019-01-25T02:07:27.094Z,41.40
2019-01-25T02:08:27.141Z,35.10
2019-01-25T02:09:27.189Z,32.90
2019-01-25T02:10:29.648Z,40.90
2019-01-25T02:11:27.287Z,36.80
2019-01-25T02:12:27.335Z,40.80
2019-01-25T02:13:27.383Z,42.60
2019-01-25T02:14:27.431Z,40.00
2019-01-25T02:15:27.478Z,48.60
2019-01-25T02:16:27.527Z,40.10
2019-01-25T02:17:27.575Z,41.80
2019-01-25T02:18:27.621Z,38.80
2019-01-25T02:19:27.668Z,41.40
2019-01-25T02:20:27.716Z,45.90
2019-01-25T02:21:27.766Z,44.90
2019-01-25T02:22:27.816Z,41.40
2019-01-25T02:23:27.867Z,41.30
2019-01-25T02:24:27.911Z,47.00
2019-01-25T02:25:27.957Z,43.90
2019-01-25T02:26:28.006Z,38.90
2019-01-25T02:27:28.054Z,43.90
2019-01-25T02:28:28.102Z,39.30
2019-01-25T02:29:28.149Z,41.40
2019-01-25T02:30:28.199Z,40.60
2019-01-25T02:31:28.245Z,36.80
2019-01-25T02:32:28.296Z,41.30
2019-01-25T02:33:28.344Z,40.50
2019-01-25T02:34:28.389Z,41.90
2019-01-25T02:35:28.440Z,43.10
2019-01-25T02:36:28.489Z,39.80
2019-01-25T02:37:28.535Z,41.10
2019-01-25T02:38:28.583Z,40.90
2019-01-25T02:39:28.631Z,43.10
2019-01-25T02:40:28.682Z,43.80
2019-01-25T02:41:28.727Z,39.00
2019-01-25T02:42:28.776Z,47.30
2019-01-25T02:43:28.824Z,40.00
2019-01-25T02:44:28.876Z,40.40
2019-01-25T02:45:28.921Z,42.80
2019-01-25T02:46:28.967Z,44.60
2019-01-25T02:47:29.015Z,35.50
2019-01-25T02:48:29.063Z,41.70
2019-01-25T02:49:29.111Z,45.90
2019-01-25T02:50:29.157Z,40.40
2019-01-25T02:51:29.206Z,42.10
2019-01-25T02:52:29.506Z,41.00
2019-01-25T02:53:29.302Z,44.30
2019-01-25T02:54:29.353Z,37.00
2019-01-25T02:55:29.403Z,45.20
2019-01-25T02:56:29.444Z,46.80
2019-01-25T02:57:29.493Z,37.80
2019-01-25T02:58:29.540Z,40.50
2019-01-25T02:59:29.589Z,39.80
2019-01-25T03:00:29.650Z,50.00
2019-01-25T03:01:29.688Z,42.30
2019-01-25T03:02:29.733Z,47.40
2019-01-25T03:03:29.781Z,39.80
2019-01-25T03:04:29.828Z,45.60
2019-01-25T03:05:29.892Z,48.80
2019-01-25T03:06:29.924Z,46.60
2019-01-25T03:07:29.972Z,40.20
2019-01-25T03:08:30.022Z,41.00
2019-01-25T03:09:30.070Z,39.20
2019-01-25T03:10:30.121Z,41.70
2019-01-25T03:11:30.166Z,48.10
2019-01-25T03:12:30.211Z,44.70
2019-01-25T03:13:30.261Z,45.30
2019-01-25T03:14:30.307Z,43.80
2019-01-25T03:15:30.356Z,40.20
2019-01-25T03:16:30.403Z,41.40
2019-01-25T03:17:30.452Z,42.50
2019-01-25T03:18:30.499Z,50.20
2019-01-25T03:19:30.548Z,45.20
2019-01-25T03:20:30.597Z,47.60
2019-01-25T03:21:30.644Z,40.20
2019-01-25T03:22:30.691Z,41.00
2019-01-25T03:23:30.739Z,43.30
2019-01-25T03:24:30.790Z,51.20
2019-01-25T03:25:30.837Z,46.90
2019-01-25T03:26:30.884Z,43.50
2019-01-25T03:27:30.931Z,46.50
2019-01-25T03:28:30.980Z,42.70
2019-01-25T03:29:31.029Z,47.70
2019-01-25T03:30:31.082Z,41.00
2019-01-25T03:31:31.132Z,44.80
2019-01-25T03:32:31.173Z,45.10
2019-01-25T03:33:31.219Z,44.30
2019-01-25T03:34:31.284Z,40.20
2019-01-25T03:35:31.315Z,43.80
2019-01-25T03:36:31.366Z,40.90
2019-01-25T03:37:31.411Z,43.40
2019-01-25T03:38:31.458Z,40.50
2019-01-25T03:39:31.508Z,42.80
2019-01-25T03:40:31.555Z,48.90
2019-01-25T03:41:31.604Z,46.10
2019-01-25T03:42:31.652Z,47.30
2019-01-25T03:43:31.720Z,43.00
2019-01-25T03:44:31.747Z,49.30
2019-01-25T03:45:31.795Z,44.60
2019-01-25T03:46:31.843Z,46.30
2019-01-25T03:47:31.891Z,46.00
2019-01-25T03:48:31.945Z,46.00
2019-01-25T03:49:31.988Z,41.40
2019-01-25T03:50:32.034Z,45.20
2019-01-25T03:51:32.085Z,53.10
2019-01-25T03:52:32.133Z,43.30
2019-01-25T03:53:32.182Z,43.30
2019-01-25T03:54:32.228Z,45.20
2019-01-25T03:55:32.275Z,44.70
2019-01-25T03:56:32.325Z,48.30
2019-01-25T03:57:32.375Z,46.10
2019-01-25T03:58:32.420Z,41.60
2019-01-25T03:59:32.471Z,44.10
2019-01-25T04:00:32.517Z,41.90
2019-01-25T04:01:32.565Z,44.00
2019-01-25T04:02:32.614Z,47.30
2019-01-25T04:03:32.662Z,46.10
2019-01-25T04:04:32.710Z,44.80
2019-01-25T04:05:32.758Z,47.50
2019-01-25T04:06:32.805Z,48.30
2019-01-25T04:07:32.855Z,41.10
2019-01-25T04:08:32.903Z,45.70
2019-01-25T04:09:32.982Z,42.90
2019-01-25T04:10:32.998Z,44.10
2019-01-25T04:11:33.046Z,44.70
2019-01-25T04:12:33.096Z,45.90
2019-01-25T04:13:33.145Z,45.70
2019-01-25T04:14:33.191Z,48.20
2019-01-25T04:15:33.248Z,46.60
2019-01-25T04:16:33.288Z,41.50
2019-01-25T04:17:33.338Z,42.90
2019-01-25T04:18:33.383Z,44.80
2019-01-25T04:19:33.433Z,43.50
2019-01-25T04:20:33.482Z,42.30
2019-01-25T04:21:33.530Z,44.80
2019-01-25T04:22:33.577Z,43.30
2019-01-25T04:23:33.630Z,49.40
2019-01-25T04:24:33.674Z,45.30
2019-01-25T04:25:33.725Z,50.80
2019-01-25T04:26:33.769Z,47.30
2019-01-25T04:27:33.818Z,43.10
2019-01-25T04:28:33.866Z,41.00
2019-01-25T04:29:33.915Z,41.90
2019-01-25T04:30:33.966Z,42.80
2019-01-25T04:31:34.010Z,47.10
2019-01-25T04:32:34.058Z,44.70
2019-01-25T04:33:34.111Z,46.90
2019-01-25T04:34:34.155Z,48.60
2019-01-25T04:35:35.469Z,50.20
2019-01-25T04:36:34.253Z,45.30
2019-01-25T04:37:34.299Z,47.20
2019-01-25T04:38:34.350Z,43.70
2019-01-25T04:39:34.395Z,46.10
2019-01-25T04:40:34.443Z,43.50
2019-01-25T04:41:34.494Z,43.30
2019-01-25T04:42:34.774Z,42.00
2019-01-25T04:43:34.588Z,46.50
2019-01-25T04:44:34.635Z,46.40
2019-01-25T04:45:34.689Z,46.30
2019-01-25T04:46:34.741Z,44.10
2019-01-25T04:47:34.834Z,42.60
2019-01-25T04:48:34.828Z,44.00
2019-01-25T04:49:34.880Z,44.00
2019-01-25T04:50:34.925Z,45.60
2019-01-25T04:51:34.973Z,46.00
2019-01-25T04:52:35.022Z,47.50
2019-01-25T04:53:35.106Z,44.50
2019-01-25T04:54:35.116Z,47.30
2019-01-25T04:55:35.167Z,44.10
2019-01-25T04:56:35.214Z,44.90
2019-01-25T04:57:35.263Z,45.70
2019-01-25T04:58:35.310Z,44.40
2019-01-25T04:59:35.358Z,46.30
2019-01-25T05:00:35.430Z,47.60
2019-01-25T05:01:35.456Z,42.20
2019-01-25T05:02:35.501Z,42.90
2019-01-25T05:03:35.549Z,51.50
2019-01-25T05:04:35.600Z,47.70
2019-01-25T05:05:35.648Z,48.20
2019-01-25T05:06:35.695Z,44.10
2019-01-25T05:07:35.745Z,44.50
2019-01-25T05:08:35.795Z,45.20
2019-01-25T05:09:35.840Z,43.30
2019-01-25T05:10:35.889Z,42.60
2019-01-25T05:11:35.937Z,47.60
2019-01-25T05:12:35.986Z,45.20
2019-01-25T05:13:36.034Z,55.00
2019-01-25T05:14:36.081Z,42.00
2019-01-25T05:15:36.130Z,51.20
2019-01-25T05:16:36.177Z,45.60
2019-01-25T05:17:36.227Z,42.20
2019-01-25T05:18:36.276Z,48.40
2019-01-25T05:19:36.324Z,48.60
2019-01-25T05:20:36.372Z,47.20
2019-01-25T05:21:36.420Z,49.60
2019-01-25T05:22:36.468Z,47.70
2019-01-25T05:23:36.516Z,36.20
2019-01-25T05:24:36.572Z,42.50
2019-01-25T05:25:36.646Z,40.10
2019-01-25T05:26:36.660Z,48.10
2019-01-25T05:27:36.710Z,47.10
2019-01-25T05:28:36.757Z,49.40
2019-01-25T05:29:36.812Z,46.50
2019-01-25T05:30:36.852Z,44.90
2019-01-25T05:31:36.903Z,46.70
2019-01-25T05:32:36.952Z,43.50
2019-01-25T05:33:37.307Z,48.20
2019-01-25T05:34:37.071Z,44.40
2019-01-25T05:35:37.095Z,45.90
2019-01-25T05:36:37.144Z,49.10
2019-01-25T05:37:37.193Z,46.40
2019-01-25T05:38:37.257Z,47.70
2019-01-25T05:39:37.661Z,46.40
2019-01-25T05:40:37.352Z,44.90
2019-01-25T05:41:37.421Z,43.10
2019-01-25T05:42:37.452Z,46.00
2019-01-25T05:43:37.482Z,48.50
2019-01-25T05:44:37.531Z,48.70
2019-01-25T05:45:37.582Z,47.10
2019-01-25T05:46:37.642Z,43.70
2019-01-25T05:47:37.675Z,45.50
2019-01-25T05:48:37.725Z,44.70
2019-01-25T05:49:37.805Z,52.70
2019-01-25T05:50:37.854Z,46.30
2019-01-25T05:51:37.902Z,45.40
2019-01-25T05:52:37.951Z,45.80
2019-01-25T05:53:37.999Z,47.40
2019-01-25T05:54:38.014Z,43.40
2019-01-25T05:55:38.096Z,45.80
2019-01-25T05:56:38.110Z,46.20
2019-01-25T05:57:38.161Z,44.00
2019-01-25T05:58:38.207Z,40.00
2019-01-25T05:59:38.256Z,42.20
2019-01-25T06:00:38.316Z,49.30
2019-01-25T06:01:38.363Z,45.00
2019-01-25T06:02:38.402Z,50.10
2019-01-25T06:03:38.452Z,48.00
2019-01-25T06:04:38.520Z,42.30
2019-01-25T06:05:38.549Z,48.90
2019-01-25T06:06:38.596Z,47.70
2019-01-25T06:07:38.644Z,45.30
2019-01-25T06:08:43.799Z,48.30
2019-01-25T06:09:38.741Z,48.80
2019-01-25T06:10:38.799Z,49.80
2019-01-25T06:11:38.837Z,50.10
2019-01-25T06:12:38.887Z,42.70
2019-01-25T06:13:39.774Z,43.70
2019-01-25T06:14:38.998Z,49.70
2019-01-25T06:15:39.032Z,43.10
2019-01-25T06:16:39.081Z,44.80
2019-01-25T06:17:39.129Z,46.00
2019-01-25T06:18:39.207Z,51.00
2019-01-25T06:19:39.227Z,47.60
2019-01-25T06:20:39.281Z,40.20
2019-01-25T06:21:39.324Z,49.00
2019-01-25T06:22:39.371Z,53.90
2019-01-25T06:23:39.423Z,48.20
2019-01-25T06:24:39.467Z,49.20
2019-01-25T06:25:39.519Z,46.40
2019-01-25T06:26:39.562Z,50.50
2019-01-25T06:27:39.615Z,45.80
2019-01-25T06:28:39.664Z,45.70
2019-01-25T06:29:40.371Z,44.40
2019-01-25T06:30:39.757Z,44.70
2019-01-25T06:31:40.157Z,48.50
2019-01-25T06:32:39.855Z,44.80
2019-01-25T06:33:39.907Z,46.80
2019-01-25T06:34:39.949Z,43.50
2019-01-25T06:35:39.999Z,45.30
2019-01-25T06:36:40.048Z,43.80
2019-01-25T06:37:40.096Z,42.30
2019-01-25T06:38:40.149Z,38.40
2019-01-25T06:39:40.196Z,46.00
2019-01-25T06:40:41.210Z,48.10
2019-01-25T06:41:44.202Z,48.00
2019-01-25T06:42:40.336Z,45.60
2019-01-25T06:43:40.385Z,51.40
2019-01-25T06:44:40.434Z,52.20
2019-01-25T06:45:40.483Z,46.10
2019-01-25T06:46:40.529Z,47.00
2019-01-25T06:47:40.578Z,45.80
2019-01-25T06:48:40.627Z,43.00
2019-01-25T06:49:40.676Z,51.10
2019-01-25T06:50:40.724Z,44.80
2019-01-25T06:51:40.772Z,51.40
2019-01-25T06:52:40.820Z,43.00
2019-01-25T06:53:40.870Z,53.20
2019-01-25T06:54:40.917Z,48.40
2019-01-25T06:55:40.966Z,48.90
2019-01-25T06:56:41.015Z,46.50
2019-01-25T06:57:41.061Z,49.70
2019-01-25T06:58:41.124Z,45.40
2019-01-25T06:59:41.159Z,53.30
2019-01-25T07:00:41.206Z,50.80
2019-01-25T07:01:41.255Z,48.80
2019-01-25T07:02:41.311Z,49.10
2019-01-25T07:03:41.352Z,48.00
2019-01-25T07:04:41.400Z,48.00
2019-01-25T07:05:41.448Z,46.00
2019-01-25T07:06:41.496Z,46.70
2019-01-25T07:07:41.544Z,46.70
2019-01-25T07:08:41.593Z,45.20
2019-01-25T07:09:41.642Z,50.90
2019-01-25T07:10:41.689Z,43.70
2019-01-25T07:11:42.180Z,44.90
2019-01-25T07:12:41.786Z,41.50
2019-01-25T07:13:41.862Z,48.10
2019-01-25T07:14:41.882Z,43.00
2019-01-25T07:15:42.007Z,43.10
2019-01-25T07:16:41.978Z,49.80
2019-01-25T07:17:42.027Z,53.00
2019-01-25T07:18:42.077Z,51.20
2019-01-25T07:19:42.122Z,44.10
2019-01-25T07:20:42.171Z,45.60
2019-01-25T07:21:42.222Z,46.00
2019-01-25T07:22:42.268Z,46.80
2019-01-25T07:23:42.315Z,44.30
2019-01-25T07:24:42.364Z,45.00
2019-01-25T07:25:42.414Z,43.60
2019-01-25T07:26:42.467Z,44.50
2019-01-25T07:27:42.509Z,50.30
2019-01-25T07:28:42.557Z,47.40
2019-01-25T07:29:42.609Z,44.50
2019-01-25T07:30:42.672Z,45.10
2019-01-25T07:31:42.729Z,45.50
2019-01-25T07:32:42.751Z,47.40
2019-01-25T07:33:42.802Z,48.20
2019-01-25T07:34:42.863Z,49.70
2019-01-25T07:35:43.831Z,45.60
2019-01-25T07:36:43.513Z,48.00
2019-01-25T07:37:43.092Z,48.90
2019-01-25T07:38:43.043Z,45.50
2019-01-25T07:39:43.125Z,50.90
2019-01-25T07:40:43.150Z,46.50
2019-01-25T07:41:43.187Z,43.20
2019-01-25T07:42:43.267Z,43.80
2019-01-25T07:43:43.289Z,45.60
2019-01-25T07:44:43.334Z,48.20
2019-01-25T07:45:43.382Z,42.00
2019-01-25T07:46:43.434Z,50.50
2019-01-25T07:47:43.506Z,46.00
2019-01-25T07:48:43.527Z,50.00
2019-01-25T07:49:43.576Z,56.50
2019-01-25T07:50:43.632Z,48.10
2019-01-25T07:51:43.717Z,48.80
2019-01-25T07:52:43.838Z,47.20
2019-01-25T07:53:43.785Z,48.80
2019-01-25T07:54:43.828Z,41.20
2019-01-25T07:55:43.867Z,46.30
2019-01-25T07:56:43.981Z,49.50
2019-01-25T07:57:43.964Z,45.20
2019-01-25T07:58:44.024Z,44.10
2019-01-25T07:59:44.081Z,54.40
2019-01-25T08:00:44.110Z,50.60
2019-01-25T08:01:44.469Z,45.50
2019-01-25T08:02:44.235Z,52.00
2019-01-25T08:03:44.255Z,48.00
2019-01-25T08:04:44.303Z,49.40
2019-01-25T08:05:44.354Z,49.10
2019-01-25T08:06:44.443Z,47.20
2019-01-25T08:07:44.449Z,41.90
2019-01-25T08:08:44.573Z,40.00
2019-01-25T08:09:44.563Z,49.40
2019-01-25T08:10:45.027Z,47.90
2019-01-25T08:11:44.644Z,52.10
2019-01-25T08:12:44.694Z,45.20
2019-01-25T08:13:45.113Z,42.30
2019-01-25T08:14:44.791Z,52.20
2019-01-25T08:15:44.839Z,51.70
2019-01-25T08:16:44.905Z,45.70
2019-01-25T08:17:44.937Z,48.20
2019-01-25T08:18:44.983Z,49.60
2019-01-25T08:19:45.108Z,47.10
2019-01-25T08:20:45.089Z,52.20
2019-01-25T08:21:45.141Z,47.90
2019-01-25T08:22:45.186Z,50.80
2019-01-25T08:23:45.230Z,47.40
2019-01-25T08:24:45.278Z,53.80
2019-01-25T08:25:45.348Z,48.20
2019-01-25T08:26:45.392Z,49.30
2019-01-25T08:27:45.501Z,47.90
2019-01-25T08:28:45.493Z,47.00
2019-01-25T08:29:45.537Z,49.10
2019-01-25T08:30:45.571Z,52.40
2019-01-25T08:31:45.633Z,46.80
2019-01-25T08:32:45.681Z,47.40
2019-01-25T08:33:45.823Z,53.90
2019-01-25T08:34:45.769Z,44.80
2019-01-25T08:35:45.816Z,50.10
2019-01-25T08:36:45.865Z,47.10
2019-01-25T08:37:45.913Z,50.90
2019-01-25T08:38:45.960Z,48.30
2019-01-25T08:39:46.026Z,49.60
2019-01-25T08:40:46.110Z,54.50
2019-01-25T08:41:46.125Z,47.90
2019-01-25T08:42:46.157Z,46.00
2019-01-25T08:43:46.205Z,46.00
2019-01-25T08:44:46.255Z,47.30
2019-01-25T08:45:46.304Z,46.70
2019-01-25T08:46:46.397Z,49.30
2019-01-25T08:47:46.443Z,46.00
2019-01-25T08:48:46.454Z,49.40
2019-01-25T08:49:46.500Z,46.80
2019-01-25T08:50:46.555Z,47.50
2019-01-25T08:51:46.701Z,49.60
2019-01-25T08:52:46.805Z,47.30
2019-01-25T08:53:46.699Z,44.30
2019-01-25T08:54:46.745Z,50.60
2019-01-25T08:55:46.811Z,50.10
2019-01-25T08:56:46.848Z,45.70
2019-01-25T08:57:46.896Z,51.60
2019-01-25T08:58:46.961Z,46.40
2019-01-25T08:59:46.991Z,47.50
2019-01-25T09:00:47.039Z,49.00
2019-01-25T09:01:47.212Z,50.00
2019-01-25T09:02:47.455Z,53.70
2019-01-25T09:03:47.188Z,53.00
2019-01-25T09:04:47.238Z,51.90
2019-01-25T09:05:47.287Z,50.20
2019-01-25T09:06:47.341Z,43.80
2019-01-25T09:07:48.087Z,47.60
2019-01-25T09:08:47.434Z,44.70
2019-01-25T09:09:47.484Z,44.70
2019-01-25T09:10:47.573Z,51.00
2019-01-25T09:11:47.603Z,52.80
2019-01-25T09:12:47.630Z,48.40
2019-01-25T09:13:47.681Z,46.40
2019-01-25T09:14:47.729Z,45.90
2019-01-25T09:15:47.780Z,46.30
2019-01-25T09:16:47.829Z,45.00
2019-01-25T09:17:47.878Z,51.20
2019-01-25T09:18:47.927Z,54.20
2019-01-25T09:19:47.977Z,49.20
2019-01-25T09:20:48.030Z,48.80
2019-01-25T09:21:48.077Z,44.70
2019-01-25T09:22:48.126Z,49.70
2019-01-25T09:23:48.177Z,46.10
2019-01-25T09:24:48.226Z,47.70
2019-01-25T09:25:48.276Z,43.30
2019-01-25T09:26:48.327Z,49.40
2019-01-25T09:27:48.374Z,49.40
2019-01-25T09:28:48.424Z,47.60
2019-01-25T09:29:48.476Z,47.10
2019-01-25T09:30:48.524Z,44.50
2019-01-25T09:31:48.575Z,43.90
2019-01-25T09:32:48.624Z,50.10
2019-01-25T09:33:48.677Z,50.10
2019-01-25T09:34:48.722Z,48.80
2019-01-25T09:35:48.773Z,48.00
2019-01-25T09:36:48.824Z,42.10
2019-01-25T09:37:48.874Z,47.50
2019-01-25T09:38:48.923Z,46.90
2019-01-25T09:39:48.974Z,47.10
2019-01-25T09:40:49.023Z,45.80
2019-01-25T09:41:49.075Z,46.30
2019-01-25T09:42:49.125Z,45.20
2019-01-25T09:43:49.175Z,49.30
2019-01-25T09:44:49.224Z,43.90
2019-01-25T09:45:49.275Z,48.80
2019-01-25T09:46:49.325Z,47.80
2019-01-25T09:47:49.379Z,46.90
2019-01-25T09:48:49.428Z,45.80
2019-01-25T09:49:49.477Z,45.90
2019-01-25T09:50:52.941Z,48.50
2019-01-25T09:51:49.579Z,43.30
2019-01-25T09:52:49.632Z,42.40
2019-01-25T09:53:49.681Z,40.60
2019-01-25T09:54:49.729Z,42.70
2019-01-25T09:55:49.784Z,43.10
2019-01-25T09:56:49.839Z,42.30
2019-01-25T09:57:49.882Z,41.30
2019-01-25T09:58:49.934Z,42.30
2019-01-25T09:59:50.005Z,35.90
2019-01-25T10:00:50.056Z,41.90
2019-01-25T10:01:50.430Z,40.40
2019-01-25T10:02:50.497Z,40.20
2019-01-25T10:03:50.221Z,40.50
2019-01-25T10:04:50.239Z,41.00
2019-01-25T10:05:50.290Z,36.40
2019-01-25T10:06:50.341Z,38.40
2019-01-25T10:07:50.392Z,38.80
2019-01-25T10:08:50.445Z,37.70
2019-01-25T10:09:50.494Z,34.70
2019-01-25T10:10:50.862Z,35.30
2019-01-25T10:11:50.595Z,34.50
2019-01-25T10:12:50.645Z,39.60
2019-01-25T10:13:50.704Z,39.10
2019-01-25T10:14:50.748Z,39.70
2019-01-25T10:15:50.799Z,34.10
2019-01-25T10:16:50.849Z,33.00
2019-01-25T10:17:50.902Z,34.30
2019-01-25T10:18:50.952Z,32.80
2019-01-25T10:19:51.004Z,26.50
2019-01-25T10:20:51.054Z,31.10
2019-01-25T10:21:51.109Z,29.40
2019-01-25T10:22:51.155Z,30.70
2019-01-25T10:23:51.214Z,36.90
2019-01-25T10:24:51.260Z,37.30
2019-01-25T10:25:51.308Z,31.30
2019-01-25T10:26:51.360Z,31.60
2019-01-25T10:27:51.409Z,32.20
2019-01-25T10:28:51.461Z,37.00
2019-01-25T10:29:51.514Z,30.60
2019-01-25T10:30:51.563Z,27.30
2019-01-25T10:31:51.614Z,29.60
2019-01-25T10:32:51.666Z,30.10
2019-01-25T10:33:51.716Z,32.10
2019-01-25T10:34:51.768Z,30.10
2019-01-25T10:35:51.818Z,31.30
2019-01-25T10:36:51.869Z,31.80
2019-01-25T10:37:51.922Z,28.90
2019-01-25T10:38:51.971Z,26.80
2019-01-25T10:39:52.022Z,26.60
2019-01-25T10:40:52.073Z,29.40
2019-01-25T10:41:52.123Z,23.20
2019-01-25T10:42:53.224Z,26.60
2019-01-25T10:43:52.226Z,24.70
2019-01-25T10:44:52.277Z,26.30
2019-01-25T10:45:52.328Z,24.70
2019-01-25T10:46:52.470Z,22.50
2019-01-25T10:47:52.429Z,23.80
2019-01-25T10:48:52.482Z,23.50
2019-01-25T10:49:53.109Z,24.80
2019-01-25T10:50:52.589Z,22.70
2019-01-25T10:51:52.634Z,22.00
2019-01-25T10:52:52.691Z,23.50
2019-01-25T10:53:52.736Z,27.40
2019-01-25T10:54:52.786Z,20.10
2019-01-25T10:55:52.838Z,20.30
2019-01-25T10:56:52.890Z,17.70
2019-01-25T10:57:52.941Z,17.30
2019-01-25T10:58:52.990Z,18.30
2019-01-25T10:59:53.042Z,18.70
2019-01-25T11:00:53.096Z,16.50
2019-01-25T11:01:53.146Z,17.20
2019-01-25T11:02:58.115Z,17.70
2019-01-25T11:03:53.247Z,16.80
2019-01-25T11:04:53.302Z,13.00
2019-01-25T11:05:53.352Z,14.70
2019-01-25T11:06:53.405Z,14.80
2019-01-25T11:07:53.454Z,15.50
2019-01-25T11:08:53.505Z,15.80
2019-01-25T11:09:53.557Z,14.80
2019-01-25T11:10:53.609Z,13.40
2019-01-25T11:11:53.659Z,16.00
2019-01-25T11:13:00.474Z,16.60
2019-01-25T11:13:53.778Z,14.90
2019-01-25T11:14:53.813Z,17.10
2019-01-25T11:15:53.867Z,19.50
2019-01-25T11:16:53.918Z,16.10
2019-01-25T11:17:53.972Z,15.50
2019-01-25T11:18:54.021Z,12.50
2019-01-25T11:19:54.072Z,13.90
2019-01-25T11:20:54.123Z,12.10
2019-01-25T11:21:54.177Z,14.20
2019-01-25T11:22:54.646Z,12.70
2019-01-25T11:23:54.283Z,16.50
2019-01-25T11:24:54.331Z,14.90
2019-01-25T11:25:55.356Z,15.00
2019-01-25T11:26:54.434Z,13.40
2019-01-25T11:27:54.486Z,13.60
2019-01-25T11:28:54.538Z,12.30
2019-01-25T11:29:54.592Z,14.70
2019-01-25T11:30:54.642Z,14.90
2019-01-25T11:31:54.701Z,12.00
2019-01-25T11:32:54.747Z,14.20
2019-01-25T11:33:54.816Z,14.20
2019-01-25T11:34:54.893Z,16.30
2019-01-25T11:35:54.903Z,15.30
2019-01-25T11:36:54.986Z,14.50
2019-01-25T11:37:55.013Z,15.70
2019-01-25T11:38:55.059Z,15.40
2019-01-25T11:39:55.113Z,16.30
2019-01-25T11:40:55.164Z,15.80
2019-01-25T11:41:55.218Z,13.70
2019-01-25T11:42:55.268Z,13.90
2019-01-25T11:43:55.323Z,13.20
2019-01-25T11:44:55.374Z,13.40
2019-01-25T11:45:55.426Z,11.00
2019-01-25T11:46:55.479Z,11.00
2019-01-25T11:47:55.531Z,11.80
2019-01-25T11:48:55.584Z,10.80
2019-01-25T11:49:55.640Z,12.40
2019-01-25T11:50:55.687Z,11.80
2019-01-25T11:51:55.742Z,10.70
2019-01-25T11:52:55.797Z,12.50
2019-01-25T11:53:55.845Z,12.90
2019-01-25T11:54:55.898Z,12.20
2019-01-25T11:55:55.949Z,12.30
2019-01-25T11:56:56.038Z,11.40
2019-01-25T11:57:56.059Z,11.80
2019-01-25T11:58:56.106Z,12.10
2019-01-25T11:59:56.167Z,11.10
2019-01-25T12:00:56.211Z,12.50
2019-01-25T12:01:56.266Z,10.90
2019-01-25T12:02:56.315Z,14.50
2019-01-25T12:03:56.367Z,9.90
2019-01-25T12:04:56.421Z,10.00
2019-01-25T12:05:56.960Z,9.30
2019-01-25T12:06:56.525Z,9.50
2019-01-25T12:07:56.577Z,13.60
2019-01-25T12:08:56.629Z,12.00
2019-01-25T12:09:56.698Z,14.60
2019-01-25T12:10:56.736Z,10.50
2019-01-25T12:11:56.787Z,14.60
2019-01-25T12:12:56.838Z,11.80
2019-01-25T12:13:57.499Z,9.90
2019-01-25T12:14:56.941Z,12.60
2019-01-25T12:15:56.993Z,11.40
2019-01-25T12:16:57.046Z,10.90
2019-01-25T12:17:57.097Z,13.60
2019-01-25T12:18:57.149Z,12.20
2019-01-25T12:19:57.202Z,10.80
2019-01-25T12:20:57.256Z,9.90
2019-01-25T12:21:57.310Z,11.90
2019-01-25T12:22:57.361Z,12.00
2019-01-25T12:23:57.409Z,12.60
2019-01-25T12:24:57.461Z,13.10
2019-01-25T12:25:57.513Z,10.40
2019-01-25T12:26:57.567Z,8.10
2019-01-25T12:27:57.616Z,8.40
2019-01-25T12:28:57.669Z,11.10
2019-01-25T12:29:58.936Z,10.40
2019-01-25T12:30:57.771Z,12.40
2019-01-25T12:31:57.823Z,11.00
2019-01-25T12:32:57.875Z,13.00
2019-01-25T12:33:57.928Z,12.00
2019-01-25T12:34:57.978Z,13.10
2019-01-25T12:35:58.030Z,10.10
2019-01-25T12:36:58.083Z,11.70
2019-01-25T12:37:58.139Z,10.90
2019-01-25T12:38:58.185Z,10.20
2019-01-25T12:39:58.240Z,11.60
2019-01-25T12:40:58.289Z,12.00
2019-01-25T12:41:58.342Z,13.10
2019-01-25T12:42:58.391Z,9.80
2019-01-25T12:43:58.444Z,13.20
2019-01-25T12:44:58.495Z,14.70
2019-01-25T12:45:58.549Z,11.80
2019-01-25T12:46:58.600Z,11.00
2019-01-25T12:47:58.651Z,12.10
2019-01-25T12:48:58.703Z,10.40
2019-01-25T12:50:00.295Z,14.20
2019-01-25T12:50:58.805Z,12.80
2019-01-25T12:51:58.858Z,12.30
2019-01-25T12:52:58.909Z,12.50